Weather History for Cumberland, WI

Change the Weather History Date:

Tuesday, November 26, 2013

  Actual Average (KRPD) Record (KRPD)
Temperature  
Mean Temperature 18 °F -  
Max Temperature 28 °F 34 °F 53 °F (1998)
Min Temperature 8 °F 21 °F -5 °F (1996)
Degree Days  
Heating Degree Days 47    
Moisture  
Dew Point 6 °F    
Average Humidity 63    
Maximum Humidity 93    
Minimum Humidity 45    
Precipitation  
Precipitation 0.00 in - - ()
Sea Level Pressure  
Sea Level Pressure 30.15 in    
Wind  
Wind Speed 13 mph (NW)    
Max Wind Speed 21 mph    
Max Gust Speed 29 mph    
Visibility 9 miles    
Events Snow    
Averages and records for this station are not official NWS values.
T = Trace of Precipitation, MM = Missing Value Source: NWS Daily Summary

Daily Weather History Graph

Daily Weather History Graph

Search for Another Location

Airport:

Trip Planner

Search our weather history database for the weather conditions in past years. The results will help you decide how hot, cold, wet, or windy it might be!

Date:

Astronomy

Nov. 26, 2013 Rise Set
Actual Time 7:21 AM CST 4:28 PM CST
Civil Twilight 6:48 AM CST 5:01 PM CST
Nautical Twilight 6:12 AM CST 5:38 PM CST
Astronomical Twilight 5:36 AM CST 6:13 PM CST
Moon 12:06 AM CST (11/26) 12:53 PM CST (11/26)
Length of Visible Light 10h 12m
Length of Day
9h 06m
Last Quarter, 41% of the Moon is Illuminated
Nov 26
Last Quarter
Dec 2
New
Dec 9
First Quarter
Dec 17
Full
Dec 25
Last Quarter

Hourly Weather History & Observations

Time (CST) Temp. Windchill Dew Point Humidity Pressure Visibility Wind Dir Wind Speed Gust Speed Precip Events Conditions
12:15 AM 28.4 °F 17.5 °F 14.0 °F 55% 30.00 in 10.0 mi NW 13.8 mph 23.0 mph N/A   Overcast
12:35 AM 28.4 °F 16.2 °F 14.0 °F 55% 30.00 in 10.0 mi NW 17.3 mph 21.9 mph N/A   Overcast
12:55 AM 26.6 °F 14.3 °F 14.0 °F 59% 30.01 in 10.0 mi NW 16.1 mph 24.2 mph N/A   Overcast
1:15 AM 26.6 °F 14.3 °F 12.2 °F 55% 30.01 in 10.0 mi NNW 16.1 mph 20.7 mph N/A   Overcast
1:35 AM 26.6 °F 16.2 °F 12.2 °F 55% 30.02 in 10.0 mi NW 11.5 mph 25.3 mph N/A   Overcast
1:55 AM 26.6 °F 16.2 °F 12.2 °F 55% 30.02 in 10.0 mi NNW 11.5 mph 18.4 mph N/A   Overcast
2:15 AM 24.8 °F 12.9 °F 12.2 °F 59% 30.03 in 10.0 mi NW 13.8 mph - N/A   Overcast
2:35 AM 24.8 °F 14.6 °F 12.2 °F 59% 30.03 in 10.0 mi NW 10.4 mph - N/A   Overcast
2:55 AM 24.8 °F 15.3 °F 12.2 °F 59% 30.02 in 10.0 mi NW 9.2 mph - N/A   Overcast
3:15 AM 24.8 °F 15.3 °F 12.2 °F 59% 30.01 in 10.0 mi NW 9.2 mph - N/A   Overcast
3:35 AM 24.8 °F 15.3 °F 12.2 °F 59% 30.01 in 10.0 mi WNW 9.2 mph - N/A Snow Light Snow
3:55 AM 23.0 °F 15.8 °F 14.0 °F 68% 30.01 in 10.0 mi NW 5.8 mph - N/A   Overcast
4:15 AM 23.0 °F 17.0 °F 17.6 °F 80% 30.01 in 5.0 mi WNW 4.6 mph - N/A Snow Light Snow
4:35 AM 23.0 °F 18.4 °F 17.6 °F 80% 30.01 in 10.0 mi WNW 3.5 mph - N/A Snow Light Snow
4:55 AM 23.0 °F 17.0 °F 17.6 °F 80% 30.01 in 4.0 mi WNW 4.6 mph - N/A Snow Light Snow
5:15 AM 23.0 °F 15.8 °F 19.4 °F 86% 30.01 in 3.0 mi West 5.8 mph - N/A Snow Light Snow
5:35 AM 23.0 °F 11.1 °F 21.2 °F 93% 30.01 in 1.5 mi WNW 12.7 mph - N/A Snow Light Snow
5:55 AM 21.2 °F 6.4 °F 17.6 °F 86% 30.02 in 0.5 mi NW 18.4 mph 28.8 mph N/A Snow Snow
6:15 AM 19.4 °F 4.5 °F 17.6 °F 93% 30.03 in 0.8 mi NW 17.3 mph 23.0 mph N/A Snow Snow
6:35 AM 19.4 °F 5.0 °F 15.8 °F 86% 30.03 in 3.0 mi NW 16.1 mph - N/A Snow Light Snow
6:55 AM 19.4 °F 7.2 °F 15.8 °F 86% 30.04 in 2.5 mi NW 11.5 mph - N/A Snow Light Snow
7:15 AM 17.6 °F 0.9 °F 10.4 °F 73% 30.06 in 7.0 mi NW 20.7 mph 28.8 mph N/A Snow Light Snow
7:35 AM 14.0 °F -3.0 °F 5.0 °F 67% 30.08 in 10.0 mi NW 18.4 mph 25.3 mph N/A   Scattered Clouds
7:55 AM 14.0 °F -3.4 °F 3.2 °F 62% 30.09 in 10.0 mi NW 19.6 mph 25.3 mph N/A   Clear
8:15 AM 14.0 °F -0.8 °F 3.2 °F 62% 30.11 in 10.0 mi NW 13.8 mph 23.0 mph N/A   Clear
8:35 AM 14.0 °F -0.8 °F 3.2 °F 62% 30.11 in 10.0 mi NNW 13.8 mph 23.0 mph N/A   Clear
8:55 AM 14.0 °F -3.0 °F 3.2 °F 62% 30.12 in 10.0 mi NW 18.4 mph 25.3 mph N/A   Clear
9:15 AM 14.0 °F -3.0 °F 1.4 °F 57% 30.13 in 10.0 mi NW 18.4 mph 24.2 mph N/A   Clear
9:35 AM 14.0 °F -3.0 °F 3.2 °F 62% 30.14 in 10.0 mi NW 18.4 mph 26.5 mph N/A   Scattered Clouds
9:55 AM 15.8 °F 0.3 °F 3.2 °F 58% 30.15 in 10.0 mi NW 16.1 mph 21.9 mph N/A   Mostly Cloudy
10:15 AM 15.8 °F -0.6 °F 3.2 °F 58% 30.15 in 10.0 mi NW 18.4 mph 25.3 mph N/A   Mostly Cloudy
10:35 AM 15.8 °F -1.1 °F 3.2 °F 58% 30.16 in 10.0 mi NW 19.6 mph - N/A   Overcast
10:55 AM 15.8 °F -0.2 °F 3.2 °F 58% 30.15 in 10.0 mi NW 17.3 mph 23.0 mph N/A   Overcast
11:15 AM 15.8 °F -0.2 °F 3.2 °F 58% 30.16 in 10.0 mi NW 17.3 mph 23.0 mph N/A   Overcast
11:35 AM 15.8 °F -0.2 °F 5.0 °F 62% 30.16 in 10.0 mi NNW 17.3 mph 23.0 mph N/A   Overcast
11:55 AM 17.6 °F 2.2 °F 3.2 °F 53% 30.16 in 10.0 mi NW 17.3 mph 23.0 mph N/A   Overcast
12:15 PM 15.8 °F 0.9 °F 3.2 °F 58% 30.15 in 10.0 mi NNW 15.0 mph 25.3 mph N/A   Overcast
12:35 PM 17.6 °F 3.2 °F 3.2 °F 53% 30.15 in 10.0 mi NW 15.0 mph 26.5 mph N/A   Overcast
12:55 PM 17.6 °F 2.7 °F 3.2 °F 53% 30.16 in 10.0 mi NNW 16.1 mph 23.0 mph N/A   Overcast
1:15 PM 17.6 °F 2.2 °F 1.4 °F 49% 30.16 in 10.0 mi NW 17.3 mph - N/A   Overcast
1:35 PM 17.6 °F 1.3 °F 1.4 °F 49% 30.16 in 10.0 mi NW 19.6 mph 23.0 mph N/A   Overcast
1:55 PM 17.6 °F 3.2 °F 1.4 °F 49% 30.16 in 10.0 mi WNW 15.0 mph - N/A   Mostly Cloudy
2:15 PM 17.6 °F 0.9 °F 1.4 °F 49% 30.16 in 10.0 mi NNW 20.7 mph 26.5 mph N/A   Mostly Cloudy
2:35 PM 17.6 °F 2.7 °F -0.4 °F 45% 30.16 in 10.0 mi NNW 16.1 mph 25.3 mph N/A   Clear
2:55 PM 17.6 °F 5.7 °F 1.4 °F 49% 30.17 in 10.0 mi NW 10.4 mph - N/A   Clear
3:15 PM 17.6 °F 1.7 °F 1.4 °F 49% 30.18 in 10.0 mi NNW 18.4 mph 23.0 mph N/A   Scattered Clouds
3:35 PM 17.6 °F 3.7 °F 1.4 °F 49% 30.19 in 10.0 mi NNW 13.8 mph 18.4 mph N/A   Scattered Clouds
3:55 PM 15.8 °F 0.9 °F 1.4 °F 53% 30.20 in 10.0 mi NNW 15.0 mph - N/A   Scattered Clouds
4:15 PM 14.0 °F -0.8 °F 1.4 °F 57% 30.20 in 10.0 mi NNW 13.8 mph 19.6 mph N/A   Scattered Clouds
4:35 PM 14.0 °F -0.8 °F 1.4 °F 57% 30.22 in 10.0 mi NNW 13.8 mph - N/A   Clear
4:55 PM 14.0 °F 0.5 °F 1.4 °F 57% 30.23 in 10.0 mi NNW 11.5 mph - N/A   Clear
5:15 PM 14.0 °F 0.5 °F 1.4 °F 57% 30.23 in 10.0 mi NW 11.5 mph 16.1 mph N/A   Clear
5:35 PM 12.2 °F -0.2 °F 1.4 °F 62% 30.24 in 10.0 mi NNW 9.2 mph - N/A   Clear
5:55 PM 12.2 °F -1.0 °F 1.4 °F 62% 30.25 in 10.0 mi NNW 10.4 mph - N/A   Clear
6:15 PM 12.2 °F -0.2 °F 1.4 °F 62% 30.25 in 10.0 mi NNW 9.2 mph - N/A   Clear
6:35 PM 12.2 °F -1.0 °F 1.4 °F 62% 30.25 in 10.0 mi NW 10.4 mph - N/A   Clear
6:55 PM 12.2 °F -1.0 °F 1.4 °F 62% 30.26 in 10.0 mi NNW 10.4 mph - N/A   Clear
7:15 PM 12.2 °F -0.2 °F 1.4 °F 62% 30.26 in 10.0 mi NNW 9.2 mph - N/A   Clear
7:35 PM 12.2 °F -2.5 °F 1.4 °F 62% 30.26 in 10.0 mi NNW 12.7 mph - N/A   Clear
7:55 PM 12.2 °F -0.2 °F 1.4 °F 62% 30.27 in 10.0 mi NNW 9.2 mph - N/A   Clear
8:15 PM 12.2 °F -0.2 °F 1.4 °F 62% 30.27 in 10.0 mi NNW 9.2 mph - N/A   Clear
8:35 PM 10.4 °F -2.4 °F 1.4 °F 67% 30.27 in 10.0 mi NNW 9.2 mph - N/A   Clear
8:55 PM 10.4 °F -1.5 °F 1.4 °F 67% 30.27 in 10.0 mi NNW 8.1 mph - N/A   Clear
9:15 PM 10.4 °F -2.4 °F 1.4 °F 67% 30.27 in 10.0 mi NNW 9.2 mph - N/A   Clear
9:35 PM 10.4 °F -4.1 °F 1.4 °F 67% 30.27 in 10.0 mi NNW 11.5 mph - N/A   Clear
9:55 PM 10.4 °F -3.3 °F 1.4 °F 67% 30.28 in 10.0 mi NNW 10.4 mph - N/A   Clear
10:15 PM 10.4 °F -3.3 °F 1.4 °F 67% 30.28 in 10.0 mi NNW 10.4 mph - N/A   Clear
10:35 PM 10.4 °F -2.4 °F 1.4 °F 67% 30.28 in 10.0 mi NNW 9.2 mph - N/A   Clear
10:55 PM 10.4 °F -2.4 °F 1.4 °F 67% 30.28 in 10.0 mi NNW 9.2 mph - N/A   Clear
11:15 PM 10.4 °F -3.3 °F 3.2 °F 73% 30.28 in 10.0 mi NNW 10.4 mph - N/A   Clear
11:35 PM 8.6 °F -4.7 °F 3.2 °F 79% 30.29 in 10.0 mi NNW 9.2 mph - N/A   Clear
11:55 PM 8.6 °F -4.7 °F 3.2 °F 79% 30.29 in 10.0 mi NNW 9.2 mph - N/A   Clear